createdAt,value
2023-03-22T00:01:22.008Z,70.53
2023-03-22T00:03:49.940Z,69.54
2023-03-22T00:06:16.793Z,69.59
2023-03-22T00:08:44.498Z,69.20
2023-03-22T00:11:12.476Z,70.91
2023-03-22T00:13:39.641Z,72.05
2023-03-22T00:16:06.829Z,72.70
2023-03-22T00:18:33.571Z,72.34
2023-03-22T00:21:00.281Z,72.01
2023-03-22T00:23:28.210Z,72.39
2023-03-22T00:25:55.519Z,71.96
2023-03-22T00:28:23.015Z,72.42
2023-03-22T00:31:01.130Z,72.58
2023-03-22T00:33:29.462Z,72.26
2023-03-22T00:36:02.144Z,72.40
2023-03-22T00:38:41.367Z,72.82
2023-03-22T00:41:10.210Z,73.76
2023-03-22T00:43:37.737Z,72.59
2023-03-22T00:46:05.507Z,73.68
2023-03-22T00:48:32.211Z,72.46
2023-03-22T00:50:58.868Z,72.76
2023-03-22T00:53:25.641Z,74.40
2023-03-22T00:55:52.427Z,75.00
2023-03-22T00:58:19.131Z,74.48
2023-03-22T01:00:45.826Z,75.62
2023-03-22T01:03:12.538Z,75.73
2023-03-22T01:05:39.133Z,74.83
2023-03-22T01:08:06.395Z,74.95
2023-03-22T01:10:33.058Z,75.32
2023-03-22T01:12:59.806Z,74.36
2023-03-22T01:15:26.630Z,74.88
2023-03-22T01:17:53.305Z,74.12
2023-03-22T01:20:20.094Z,74.06
2023-03-22T01:22:47.214Z,74.82
2023-03-22T01:25:13.822Z,73.85
2023-03-22T01:27:40.497Z,74.72
2023-03-22T01:30:08.515Z,74.43
2023-03-22T01:32:36.242Z,75.70
2023-03-22T01:35:04.960Z,75.68
2023-03-22T01:37:31.828Z,76.75
2023-03-22T01:40:00.301Z,77.72
2023-03-22T01:42:27.722Z,77.56
2023-03-22T01:45:16.106Z,80.14
2023-03-22T01:47:55.313Z,80.89
2023-03-22T01:50:23.558Z,82.30
2023-03-22T01:52:52.587Z,83.33
2023-03-22T01:55:21.283Z,82.05
2023-03-22T01:57:48.334Z,82.01
2023-03-22T02:00:15.369Z,81.98
2023-03-22T02:02:48.613Z,81.11
2023-03-22T02:05:16.229Z,81.18
2023-03-22T02:07:44.415Z,80.06
2023-03-22T02:10:12.749Z,78.78
2023-03-22T02:13:10.082Z,78.37
2023-03-22T02:15:51.192Z,78.89
2023-03-22T02:18:52.981Z,80.72
2023-03-22T02:21:48.272Z,80.72
2023-03-22T02:24:14.984Z,80.11
2023-03-22T02:26:53.935Z,79.05
2023-03-22T02:30:05.777Z,78.96
2023-03-22T02:33:02.260Z,79.14
2023-03-22T02:35:47.580Z,78.79
2023-03-22T02:38:49.673Z,78.36
2023-03-22T02:41:30.899Z,79.00
2023-03-22T02:44:18.698Z,79.56
2023-03-22T02:47:12.939Z,80.09
2023-03-22T02:49:51.529Z,79.52
2023-03-22T02:52:39.233Z,79.19
2023-03-22T02:55:24.765Z,79.57
2023-03-22T02:58:01.243Z,78.41
2023-03-22T03:00:29.237Z,78.56
2023-03-22T03:03:01.298Z,78.12
2023-03-22T03:05:32.075Z,78.20
2023-03-22T03:08:02.306Z,79.04
2023-03-22T03:10:29.339Z,79.23
2023-03-22T03:12:56.011Z,80.10
2023-03-22T03:15:22.966Z,80.27
2023-03-22T03:18:17.331Z,81.69
2023-03-22T03:21:02.798Z,83.04
2023-03-22T03:23:49.865Z,84.09
2023-03-22T03:26:25.465Z,82.94
2023-03-22T03:28:57.756Z,83.47
2023-03-22T03:31:43.231Z,83.59
2023-03-22T03:34:15.631Z,84.14
2023-03-22T03:36:49.242Z,84.15
2023-03-22T03:39:18.915Z,84.66
2023-03-22T03:41:48.871Z,84.59
2023-03-22T03:44:17.059Z,84.61
2023-03-22T03:46:46.208Z,82.98
2023-03-22T03:49:15.023Z,83.06
2023-03-22T03:51:51.819Z,82.04
2023-03-22T03:54:19.070Z,82.09
2023-03-22T03:56:46.723Z,83.49
2023-03-22T03:59:17.046Z,84.86
2023-03-22T04:01:45.374Z,84.36
2023-03-22T04:04:12.006Z,82.44
2023-03-22T04:06:38.608Z,81.53
2023-03-22T04:09:05.302Z,82.71
2023-03-22T04:11:31.908Z,82.35
2023-03-22T04:13:58.566Z,81.77
2023-03-22T04:16:25.297Z,82.80
2023-03-22T04:18:52.027Z,82.91
2023-03-22T04:21:18.780Z,82.91
2023-03-22T04:23:45.525Z,84.52
2023-03-22T04:26:12.568Z,84.91
2023-03-22T04:28:39.265Z,84.41
2023-03-22T04:31:06.174Z,82.54
2023-03-22T04:33:33.082Z,83.96
2023-03-22T04:35:59.715Z,84.77
2023-03-22T04:38:26.311Z,83.04
2023-03-22T04:40:52.952Z,82.15
2023-03-22T04:43:19.588Z,81.87
2023-03-22T04:45:46.295Z,81.78
2023-03-22T04:48:13.295Z,81.88
2023-03-22T04:50:40.591Z,82.81
2023-03-22T04:53:07.431Z,84.39
2023-03-22T04:55:34.094Z,85.21
2023-03-22T04:58:00.871Z,84.94
2023-03-22T05:00:27.581Z,83.75
2023-03-22T05:02:54.242Z,85.62
2023-03-22T05:05:20.917Z,84.09
2023-03-22T05:07:47.570Z,83.90
2023-03-22T05:10:14.203Z,84.59
2023-03-22T05:12:40.842Z,85.38
2023-03-22T05:15:08.416Z,84.66
2023-03-22T05:17:35.056Z,84.65
2023-03-22T05:20:01.657Z,84.51
2023-03-22T05:22:28.284Z,84.78
2023-03-22T05:24:54.890Z,85.12
2023-03-22T05:27:21.638Z,85.82
2023-03-22T05:29:48.265Z,86.79
2023-03-22T05:32:14.919Z,86.75
2023-03-22T05:34:41.583Z,92.31
2023-03-22T05:37:08.423Z,93.99
2023-03-22T05:39:35.109Z,94.60
2023-03-22T05:42:01.727Z,94.25
2023-03-22T05:44:28.444Z,93.22
2023-03-22T05:46:55.298Z,92.53
2023-03-22T05:49:22.051Z,93.76
2023-03-22T05:51:48.680Z,93.67
2023-03-22T05:54:15.327Z,93.09
2023-03-22T05:56:41.943Z,90.74
2023-03-22T05:59:08.623Z,91.15
2023-03-22T06:01:35.315Z,93.67
2023-03-22T06:04:01.964Z,93.78
2023-03-22T06:06:28.867Z,94.45
2023-03-22T06:09:07.040Z,94.82
2023-03-22T06:11:41.088Z,96.08
2023-03-22T06:14:07.731Z,97.28
2023-03-22T06:16:34.556Z,97.47
2023-03-22T06:19:01.204Z,96.92
2023-03-22T06:21:27.876Z,94.58
2023-03-22T06:23:54.616Z,93.42
2023-03-22T06:26:21.320Z,91.21
2023-03-22T06:28:47.996Z,94.30
2023-03-22T06:31:14.732Z,92.39
2023-03-22T06:33:41.437Z,91.70
2023-03-22T06:36:08.335Z,90.81
2023-03-22T06:38:34.955Z,93.21
2023-03-22T06:41:01.615Z,93.17
2023-03-22T06:43:28.277Z,93.34
2023-03-22T06:45:55.075Z,91.21
2023-03-22T06:48:21.802Z,85.42
2023-03-22T06:50:48.661Z,86.11
2023-03-22T06:53:15.455Z,83.91
2023-03-22T06:55:42.085Z,84.34
2023-03-22T06:58:08.709Z,84.42
2023-03-22T07:00:35.383Z,83.49
2023-03-22T07:03:02.230Z,86.27
2023-03-22T07:05:28.981Z,87.44
2023-03-22T07:07:55.635Z,77.82
2023-03-22T07:10:22.392Z,73.61
2023-03-22T07:12:49.121Z,73.75
2023-03-22T07:15:15.840Z,75.74
2023-03-22T07:17:42.481Z,76.64
2023-03-22T07:20:09.587Z,71.92
2023-03-22T07:22:36.283Z,72.89
2023-03-22T07:25:03.075Z,68.93
2023-03-22T07:27:29.702Z,69.52
2023-03-22T07:29:56.348Z,68.55
2023-03-22T07:32:23.018Z,71.85
2023-03-22T07:34:49.629Z,67.92
2023-03-22T07:37:16.258Z,67.08
2023-03-22T07:39:42.922Z,67.44
2023-03-22T07:42:09.594Z,67.60
2023-03-22T07:44:36.425Z,67.53
2023-03-22T07:47:03.237Z,69.50
2023-03-22T07:49:30.479Z,68.55
2023-03-22T07:51:58.095Z,66.64
2023-03-22T07:54:33.544Z,66.38
2023-03-22T07:57:01.742Z,64.00
2023-03-22T07:59:28.957Z,66.55
2023-03-22T08:01:55.759Z,65.15
2023-03-22T08:04:22.804Z,65.48
2023-03-22T08:06:49.502Z,67.91
2023-03-22T08:09:16.160Z,64.57
2023-03-22T08:11:42.864Z,66.15
2023-03-22T08:14:10.077Z,67.56
2023-03-22T08:16:36.735Z,64.58
2023-03-22T08:19:03.456Z,62.50
2023-03-22T08:21:30.100Z,59.33
2023-03-22T08:23:56.753Z,60.32
2023-03-22T08:26:23.445Z,62.42
2023-03-22T08:28:50.110Z,61.77
2023-03-22T08:31:17.633Z,62.70
2023-03-22T08:33:45.123Z,62.08
2023-03-22T08:36:15.765Z,60.74
2023-03-22T08:38:42.467Z,62.36
2023-03-22T08:41:09.232Z,58.12
2023-03-22T08:43:35.874Z,58.74
2023-03-22T08:46:03.370Z,60.63
2023-03-22T08:48:30.015Z,60.51
2023-03-22T08:50:57.549Z,62.27
2023-03-22T08:53:24.536Z,61.27
2023-03-22T08:55:51.202Z,59.58
2023-03-22T08:58:17.949Z,60.49
2023-03-22T09:00:48.910Z,59.71
2023-03-22T09:03:15.954Z,58.39
2023-03-22T09:05:42.597Z,57.41
2023-03-22T09:08:18.131Z,61.22
2023-03-22T09:10:49.905Z,60.50
2023-03-22T09:13:16.853Z,61.31
2023-03-22T09:15:44.580Z,60.55
2023-03-22T09:18:11.470Z,62.11
2023-03-22T09:20:38.615Z,59.70
2023-03-22T09:23:05.938Z,61.61
2023-03-22T09:25:33.137Z,61.54
2023-03-22T09:27:59.752Z,61.50
2023-03-22T09:30:26.991Z,61.35
2023-03-22T09:32:53.780Z,64.75
2023-03-22T09:35:20.486Z,61.94
2023-03-22T09:37:47.336Z,65.18
2023-03-22T09:40:14.036Z,58.25
2023-03-22T09:42:47.581Z,58.75
2023-03-22T09:45:19.319Z,59.02
2023-03-22T09:47:50.213Z,59.28
2023-03-22T09:50:21.673Z,58.87
2023-03-22T09:52:48.790Z,57.19
2023-03-22T09:55:18.600Z,55.74
2023-03-22T09:57:52.332Z,55.85
2023-03-22T10:00:28.992Z,58.45
2023-03-22T10:03:31.708Z,55.13
2023-03-22T10:05:58.235Z,55.80
2023-03-22T10:08:35.163Z,56.04
2023-03-22T10:11:01.935Z,54.57
2023-03-22T10:13:46.035Z,53.46
2023-03-22T10:16:23.885Z,55.37
2023-03-22T10:18:52.963Z,54.84
2023-03-22T10:21:21.036Z,56.04
2023-03-22T10:23:54.379Z,54.50
2023-03-22T10:26:31.928Z,54.48
2023-03-22T10:29:09.464Z,55.04
2023-03-22T10:31:36.236Z,54.10
2023-03-22T10:34:12.219Z,53.25
2023-03-22T10:36:41.363Z,52.54
2023-03-22T10:39:31.633Z,54.61
2023-03-22T10:42:02.849Z,54.28
2023-03-22T10:44:32.516Z,55.80
2023-03-22T10:47:02.413Z,57.82
2023-03-22T10:49:35.677Z,56.06
2023-03-22T10:52:06.551Z,53.88
2023-03-22T10:54:33.321Z,55.59
2023-03-22T10:56:59.909Z,55.46
2023-03-22T10:59:45.129Z,56.53
2023-03-22T11:02:27.373Z,56.45
2023-03-22T11:05:05.396Z,55.29
2023-03-22T11:07:36.490Z,56.16
2023-03-22T11:10:08.867Z,57.17
2023-03-22T11:12:39.532Z,57.02
2023-03-22T11:15:20.200Z,55.55
2023-03-22T11:17:46.849Z,57.15
2023-03-22T11:20:17.935Z,54.94
2023-03-22T11:22:47.497Z,55.67
2023-03-22T11:25:22.709Z,56.44
2023-03-22T11:28:06.814Z,58.39
2023-03-22T11:30:34.811Z,59.75
2023-03-22T11:33:21.851Z,58.15
2023-03-22T11:35:56.047Z,59.44
2023-03-22T11:38:35.726Z,59.69
2023-03-22T11:41:08.201Z,59.41
2023-03-22T11:43:41.336Z,60.00
2023-03-22T11:46:09.528Z,58.63
2023-03-22T11:48:37.310Z,56.81
2023-03-22T11:51:09.825Z,59.85
2023-03-22T11:53:40.142Z,61.51
2023-03-22T11:56:10.419Z,61.05
2023-03-22T11:58:39.730Z,60.60
2023-03-22T12:01:13.891Z,59.98
2023-03-22T12:03:43.309Z,60.45
2023-03-22T12:06:24.803Z,58.89
2023-03-22T12:08:58.715Z,60.48
2023-03-22T12:11:40.806Z,58.76
2023-03-22T12:14:07.379Z,60.38
2023-03-22T12:16:55.115Z,57.44
2023-03-22T12:19:24.720Z,59.04
2023-03-22T12:21:51.870Z,59.94
2023-03-22T12:24:25.243Z,58.92
2023-03-22T12:26:56.359Z,60.33
2023-03-22T12:29:24.030Z,58.81
2023-03-22T12:32:27.091Z,60.21
2023-03-22T12:35:01.334Z,58.54
2023-03-22T12:37:38.649Z,57.86
2023-03-22T12:40:43.676Z,56.06
2023-03-22T12:43:18.965Z,56.42
2023-03-22T12:45:51.104Z,56.66
2023-03-22T12:48:46.352Z,57.16
2023-03-22T12:51:14.756Z,56.77
2023-03-22T12:53:49.267Z,58.74
2023-03-22T12:56:19.144Z,58.28
2023-03-22T12:58:50.961Z,56.31
2023-03-22T13:01:23.583Z,55.23
2023-03-22T13:03:53.554Z,55.17
2023-03-22T13:06:42.269Z,56.23
2023-03-22T13:09:14.954Z,55.27
2023-03-22T13:11:47.926Z,53.72
2023-03-22T13:14:52.592Z,53.31
2023-03-22T13:17:25.523Z,52.68
2023-03-22T13:20:00.912Z,51.91
2023-03-22T13:22:39.228Z,52.43
2023-03-22T13:25:12.168Z,54.39
2023-03-22T13:27:55.200Z,52.13
2023-03-22T13:30:21.803Z,49.86
2023-03-22T13:32:56.313Z,52.20
2023-03-22T13:35:48.868Z,51.28
2023-03-22T13:38:22.805Z,50.54
2023-03-22T13:40:58.428Z,48.64
2023-03-22T13:43:45.693Z,46.85
2023-03-22T13:46:18.205Z,46.66
2023-03-22T13:48:48.262Z,46.52
2023-03-22T13:51:21.435Z,46.66
2023-03-22T13:54:08.218Z,46.53
2023-03-22T13:56:40.844Z,44.04
2023-03-22T13:59:27.794Z,44.45
2023-03-22T14:02:20.454Z,43.46
2023-03-22T14:04:57.340Z,44.79
2023-03-22T14:07:37.711Z,43.46
2023-03-22T14:11:05.818Z,43.81
2023-03-22T14:13:43.980Z,42.70
2023-03-22T14:16:28.531Z,42.96
2023-03-22T14:18:56.371Z,43.01
2023-03-22T14:21:37.822Z,42.46
